Time;durP1;ratioP1;P1;durP2;ratioP2;P2;SDS_P1;SDS_P2;PMS_P1;PMS_P2;Temp;Humidity;BMP_temperature;BMP_pressure;BME280_temperature;BME280_humidity;BME280_pressure;Samples;Min_cycle;Max_cycle;Signal;HPM_P1;HPM_P2
2024/04/10 00:00:05;;;;;;;16.50;3.33;;;12.40;99.90;;;;;;5453559;26;20007;-81
2024/04/10 00:02:31;;;;;;;15.85;4.38;;;12.40;99.90;;;;;;5453143;26;20597;-80
2024/04/10 00:04:57;;;;;;;24.67;4.22;;;12.50;99.90;;;;;;5451761;26;20013;-80
2024/04/10 00:07:22;;;;;;;21.70;4.32;;;12.40;99.90;;;;;;5451904;26;19999;-78
2024/04/10 00:09:48;;;;;;;20.98;3.67;;;12.30;99.90;;;;;;5453405;26;20010;-80
2024/04/10 00:12:14;;;;;;;22.17;4.63;;;12.30;99.90;;;;;;5452429;26;19998;-79
2024/04/10 00:14:39;;;;;;;18.50;3.45;;;12.20;99.90;;;;;;5452702;26;20375;-78
2024/04/10 00:17:05;;;;;;;20.63;4.20;;;12.30;99.90;;;;;;5453377;26;19994;-78
2024/04/10 00:19:31;;;;;;;15.48;3.70;;;12.20;99.90;;;;;;5453791;26;20464;-75
2024/04/10 00:21:56;;;;;;;28.02;4.57;;;12.10;99.90;;;;;;5451377;26;20003;-76
2024/04/10 00:24:22;;;;;;;16.63;3.33;;;12.00;99.90;;;;;;5464177;26;19998;-79
2024/04/10 00:26:52;;;;;;;14.50;3.72;;;12.10;99.90;;;;;;5458752;26;20011;-80
2024/04/10 00:29:18;;;;;;;19.55;4.38;;;12.10;99.90;;;;;;5453417;26;20081;-79
2024/04/10 00:31:45;;;;;;;26.85;4.10;;;12.00;99.90;;;;;;5451087;26;20011;-79
2024/04/10 00:34:11;;;;;;;20.02;3.28;;;12.10;99.90;;;;;;5452340;26;19998;-79
2024/04/10 00:36:37;;;;;;;20.95;3.85;;;12.10;99.90;;;;;;5452914;26;20003;-78
2024/04/10 00:39:03;;;;;;;20.35;4.22;;;12.20;99.90;;;;;;5452870;26;20014;-79
2024/04/10 00:41:29;;;;;;;22.23;4.40;;;12.10;99.90;;;;;;5450105;26;19999;-79
2024/04/10 00:43:55;;;;;;;19.65;4.03;;;12.10;99.90;;;;;;5453222;26;20006;-80
2024/04/10 00:46:23;;;;;;;15.20;4.18;;;12.10;99.90;;;;;;5451618;26;20108;-77
2024/04/10 00:48:50;;;;;;;17.23;3.97;;;12.00;99.90;;;;;;5453189;26;20386;-76
2024/04/10 00:51:22;;;;;;;21.67;4.00;;;12.10;99.90;;;;;;5451153;26;20100;-80
2024/04/10 00:53:48;;;;;;;21.50;4.03;;;12.00;99.90;;;;;;5453570;26;20027;-79
2024/04/10 00:56:14;;;;;;;20.08;3.75;;;12.00;99.90;;;;;;5452971;26;19998;-75
2024/04/10 00:58:41;;;;;;;19.48;3.55;;;11.90;99.90;;;;;;5452607;26;19994;-75
2024/04/10 01:01:08;;;;;;;15.82;4.15;;;11.90;99.90;;;;;;5452062;26;20014;-80
2024/04/10 01:03:36;;;;;;;16.20;4.22;;;11.90;99.90;;;;;;5452831;26;20002;-80
2024/04/10 01:06:03;;;;;;;21.55;3.35;;;11.90;99.90;;;;;;5450613;26;19998;-79
2024/04/10 01:08:31;;;;;;;20.40;4.35;;;11.90;99.90;;;;;;5452257;26;20011;-77
2024/04/10 01:10:59;;;;;;;15.52;3.58;;;11.90;99.90;;;;;;5452284;26;20038;-75
2024/04/10 01:13:26;;;;;;;26.02;4.72;;;11.90;99.90;;;;;;5453419;26;19998;-79
2024/04/10 01:15:52;;;;;;;18.20;3.45;;;11.90;99.90;;;;;;5452478;26;19998;-75
2024/04/10 01:18:17;;;;;;;23.10;3.85;;;11.90;99.90;;;;;;5451528;26;20010;-78
2024/04/10 01:20:43;;;;;;;16.35;3.67;;;11.80;99.90;;;;;;5452120;26;20455;-75
2024/04/10 01:23:09;;;;;;;17.23;4.18;;;11.80;99.90;;;;;;5452913;26;19999;-80
2024/04/10 01:25:35;;;;;;;15.75;3.70;;;11.80;99.90;;;;;;5469865;26;20439;-76
2024/04/10 01:28:00;;;;;;;23.75;4.00;;;11.80;99.90;;;;;;5451076;26;20013;-79
2024/04/10 01:30:26;;;;;;;19.08;3.70;;;11.80;99.90;;;;;;5448685;26;20027;-80
2024/04/10 01:32:52;;;;;;;16.73;3.30;;;11.70;99.90;;;;;;5452800;26;20067;-75
2024/04/10 01:35:18;;;;;;;17.40;3.70;;;11.60;99.90;;;;;;5452123;26;19999;-78
2024/04/10 01:37:44;;;;;;;15.63;3.83;;;11.70;99.90;;;;;;5452726;26;19995;-75
2024/04/10 01:40:10;;;;;;;18.30;3.40;;;11.60;99.90;;;;;;5451437;26;19998;-79
2024/04/10 01:42:36;;;;;;;19.90;3.70;;;11.60;99.90;;;;;;5452003;26;20097;-75
2024/04/10 01:45:03;;;;;;;20.13;3.72;;;11.50;99.90;;;;;;5450632;26;20047;-78
2024/04/10 01:47:29;;;;;;;24.10;4.13;;;11.60;99.90;;;;;;5452348;26;20010;-76
2024/04/10 01:49:55;;;;;;;23.90;3.47;;;11.50;99.90;;;;;;5451524;26;20351;-77
2024/04/10 01:52:20;;;;;;;21.50;3.63;;;11.60;99.90;;;;;;5452442;26;19999;-75
2024/04/10 01:54:47;;;;;;;16.52;3.35;;;11.50;99.90;;;;;;5450483;26;20409;-75
2024/04/10 01:57:13;;;;;;;16.83;3.40;;;11.50;99.90;;;;;;5452686;26;20003;-78
2024/04/10 01:59:39;;;;;;;17.05;3.30;;;11.50;99.90;;;;;;5451923;26;20486;-75
2024/04/10 02:02:05;;;;;;;17.35;3.28;;;11.50;99.90;;;;;;5451694;26;19999;-78
2024/04/10 02:04:30;;;;;;;19.60;4.22;;;11.60;99.90;;;;;;5449228;26;20007;-77
2024/04/10 02:06:56;;;;;;;15.65;4.07;;;11.60;99.90;;;;;;5450590;26;20010;-78
2024/04/10 02:09:22;;;;;;;21.45;4.03;;;11.60;99.90;;;;;;5451685;26;20039;-75
2024/04/10 02:11:47;;;;;;;25.52;5.38;;;11.50;99.90;;;;;;5450077;26;19999;-75
2024/04/10 02:14:13;;;;;;;19.85;3.95;;;11.50;99.90;;;;;;5451610;26;20553;-78
2024/04/10 02:16:40;;;;;;;16.33;3.42;;;11.60;99.90;;;;;;5449177;26;20003;-76
2024/04/10 02:19:07;;;;;;;20.73;3.45;;;11.50;99.90;;;;;;5447944;26;20014;-76
2024/04/10 02:21:32;;;;;;;21.88;4.50;;;11.40;99.90;;;;;;5451672;26;20067;-76
2024/04/10 02:23:58;;;;;;;14.13;3.60;;;11.40;99.90;;;;;;5455616;26;19999;-77
2024/04/10 02:26:24;;;;;;;17.23;3.17;;;11.40;99.90;;;;;;5464446;26;20003;-76
2024/04/10 02:28:50;;;;;;;17.83;3.63;;;11.30;99.90;;;;;;5451365;26;20329;-78
2024/04/10 02:31:15;;;;;;;16.80;4.05;;;11.30;99.90;;;;;;5451013;26;20458;-78
2024/04/10 02:33:41;;;;;;;21.88;3.80;;;11.30;99.90;;;;;;5450604;26;20003;-75
2024/04/10 02:36:08;;;;;;;14.48;3.20;;;11.40;99.90;;;;;;5450212;26;19999;-76
2024/04/10 02:38:35;;;;;;;14.82;3.67;;;11.30;99.90;;;;;;5449725;26;20316;-78
2024/04/10 02:41:02;;;;;;;16.38;3.88;;;11.40;99.90;;;;;;5451359;26;20488;-75
2024/04/10 02:43:27;;;;;;;18.73;3.58;;;11.40;99.90;;;;;;5450221;26;20035;-75
2024/04/10 02:46:01;;;;;;;21.63;3.92;;;11.40;99.90;;;;;;5451728;26;20448;-78
2024/04/10 02:48:28;;;;;;;19.65;3.72;;;11.30;99.90;;;;;;5427401;26;20072;-78
2024/04/10 02:50:55;;;;;;;17.23;3.35;;;11.30;99.90;;;;;;5449448;26;20565;-78
2024/04/10 02:53:20;;;;;;;19.05;3.40;;;11.30;99.90;;;;;;5427361;26;20440;-77
2024/04/10 02:55:48;;;;;;;13.63;3.85;;;11.30;99.90;;;;;;5451091;26;19999;-78
2024/04/10 02:58:14;;;;;;;14.27;3.45;;;11.30;99.90;;;;;;5451502;26;20003;-78
2024/04/10 03:00:44;;;;;;;22.88;3.47;;;11.30;99.90;;;;;;5447360;26;20073;-77
2024/04/10 03:03:10;;;;;;;13.55;3.15;;;11.30;99.90;;;;;;5435354;26;19998;-76
2024/04/10 03:05:36;;;;;;;10.35;2.58;;;11.40;99.90;;;;;;5448753;26;19995;-78
2024/04/10 03:08:01;;;;;;;10.82;2.90;;;11.30;99.90;;;;;;5449238;26;20006;-77
2024/04/10 03:10:28;;;;;;;15.40;2.72;;;11.40;99.90;;;;;;5450933;26;20408;-78
2024/04/10 03:12:54;;;;;;;8.25;2.72;;;11.40;99.90;;;;;;5449385;26;20040;-78
2024/04/10 03:15:20;;;;;;;17.27;3.42;;;11.40;99.90;;;;;;5449433;26;19994;-78
2024/04/10 03:17:46;;;;;;;10.98;2.78;;;11.40;99.90;;;;;;5450702;26;20362;-76
2024/04/10 03:20:13;;;;;;;11.27;2.90;;;11.40;99.90;;;;;;5450810;26;20446;-75
2024/04/10 03:22:39;;;;;;;8.98;2.58;;;11.30;99.90;;;;;;5450838;26;20010;-76
2024/04/10 03:25:05;;;;;;;7.68;2.90;;;11.30;99.90;;;;;;5472289;26;20454;-75
2024/04/10 03:27:31;;;;;;;13.18;3.25;;;11.30;99.90;;;;;;5486952;26;19998;-76
2024/04/10 03:29:57;;;;;;;10.68;2.78;;;11.30;99.90;;;;;;5490864;26;20017;-77
2024/04/10 03:32:23;;;;;;;13.77;3.05;;;11.40;99.90;;;;;;5489588;26;19994;-77
2024/04/10 03:34:49;;;;;;;13.27;3.58;;;11.40;99.90;;;;;;5490443;26;20075;-78
2024/04/10 03:37:14;;;;;;;14.13;3.67;;;11.40;99.90;;;;;;5490965;26;20034;-74
2024/04/10 03:39:41;;;;;;;14.80;3.03;;;11.40;99.90;;;;;;5491052;26;20473;-77
2024/04/10 03:42:07;;;;;;;17.98;3.28;;;11.40;99.90;;;;;;5489161;26;19994;-76
2024/04/10 03:44:35;;;;;;;11.32;3.55;;;11.20;99.90;;;;;;5490863;26;19998;-74
2024/04/10 03:47:02;;;;;;;21.35;4.47;;;11.20;99.90;;;;;;5490728;26;20249;-76
2024/04/10 03:49:28;;;;;;;14.98;3.17;;;11.20;99.90;;;;;;5490888;26;20005;-75
2024/04/10 03:51:54;;;;;;;18.80;3.97;;;11.20;99.90;;;;;;5489319;26;19994;-75
2024/04/10 03:54:20;;;;;;;13.65;3.50;;;11.30;99.90;;;;;;5489410;26;20005;-78
2024/04/10 03:56:45;;;;;;;15.80;4.30;;;11.20;99.90;;;;;;5490677;26;20396;-77
2024/04/10 03:59:11;;;;;;;11.55;3.55;;;11.30;99.90;;;;;;5490839;26;20001;-77
2024/04/10 04:01:37;;;;;;;12.35;4.00;;;11.40;99.90;;;;;;5487820;26;20005;-74
2024/04/10 04:04:03;;;;;;;17.30;4.20;;;11.40;99.90;;;;;;5489545;26;20439;-77
2024/04/10 04:06:32;;;;;;;13.57;3.75;;;11.50;99.90;;;;;;5490343;26;19994;-74
2024/04/10 04:08:58;;;;;;;20.38;4.20;;;11.50;99.90;;;;;;5488645;26;20001;-77
2024/04/10 04:11:24;;;;;;;14.80;3.28;;;11.60;99.90;;;;;;5485822;26;20449;-77
2024/04/10 04:13:50;;;;;;;17.33;3.95;;;11.60;99.90;;;;;;5453694;26;19995;-74
2024/04/10 04:16:15;;;;;;;18.73;3.33;;;11.60;99.90;;;;;;5454214;26;20005;-74
2024/04/10 04:18:41;;;;;;;13.80;4.05;;;11.60;99.90;;;;;;5453812;26;20448;-77
2024/04/10 04:21:07;;;;;;;17.33;4.60;;;11.60;99.90;;;;;;5512146;26;20035;-77
2024/04/10 04:23:33;;;;;;;11.48;4.00;;;11.60;99.90;;;;;;5452432;26;20461;-75
2024/04/10 04:25:59;;;;;;;21.77;3.90;;;11.60;99.90;;;;;;5488895;26;20078;-75
2024/04/10 04:28:25;;;;;;;21.63;3.95;;;11.60;99.90;;;;;;5489227;26;20013;-74
2024/04/10 04:30:51;;;;;;;15.32;3.85;;;11.60;99.90;;;;;;5490330;26;20374;-77
2024/04/10 04:33:18;;;;;;;20.83;3.60;;;11.60;99.90;;;;;;5490257;26;20390;-77
2024/04/10 04:35:44;;;;;;;19.83;4.45;;;11.60;99.90;;;;;;5490148;26;20002;-77
2024/04/10 04:38:10;;;;;;;20.88;3.90;;;11.70;99.90;;;;;;5487115;26;20407;-77
2024/04/10 04:40:36;;;;;;;18.65;4.18;;;11.60;99.90;;;;;;5489659;26;20331;-76
2024/04/10 04:43:08;;;;;;;17.65;4.45;;;11.60;99.90;;;;;;5489730;26;20010;-75
2024/04/10 04:45:34;;;;;;;18.23;3.88;;;11.60;99.90;;;;;;5490172;26;20523;-75
2024/04/10 04:48:00;;;;;;;18.70;4.00;;;11.60;99.90;;;;;;5490080;26;20006;-76
2024/04/10 04:50:26;;;;;;;15.95;3.53;;;11.60;99.90;;;;;;5489100;26;20002;-77
2024/04/10 04:52:52;;;;;;;15.63;3.30;;;11.50;99.90;;;;;;5487662;26;20013;-75
2024/04/10 04:55:19;;;;;;;15.57;3.65;;;11.40;99.90;;;;;;5488631;26;19998;-77
2024/04/10 04:57:44;;;;;;;17.25;3.60;;;11.40;99.90;;;;;;5487857;26;20017;-75
2024/04/10 05:00:19;;;;;;;15.80;3.33;;;11.50;99.90;;;;;;5488775;26;20002;-74
2024/04/10 05:02:46;;;;;;;16.60;2.58;;;11.40;99.90;;;;;;5452970;26;19999;-76
2024/04/10 05:05:16;;;;;;;15.63;3.78;;;11.40;99.90;;;;;;5449778;26;20384;-76
2024/04/10 05:07:43;;;;;;;12.70;2.95;;;11.40;99.90;;;;;;5452846;26;20075;-74
2024/04/10 05:10:10;;;;;;;20.80;3.75;;;11.50;99.90;;;;;;5453058;26;19998;-75
2024/04/10 05:12:38;;;;;;;19.83;4.88;;;11.50;99.90;;;;;;5451749;26;20014;-77
2024/04/10 05:15:06;;;;;;;13.73;3.30;;;11.40;99.90;;;;;;5452842;26;20019;-75
2024/04/10 05:17:31;;;;;;;15.18;3.53;;;11.40;99.90;;;;;;5411250;26;20010;-75
2024/04/10 05:19:58;;;;;;;21.77;3.40;;;11.40;99.90;;;;;;5431254;26;20038;-75
2024/04/10 05:22:24;;;;;;;23.13;5.65;;;11.40;99.90;;;;;;5425236;26;19999;-75
2024/04/10 05:24:49;;;;;;;16.13;3.25;;;11.40;99.90;;;;;;5432539;26;20040;-77
2024/04/10 05:27:23;;;;;;;15.38;3.10;;;11.30;99.90;;;;;;5427799;26;20490;-74
2024/04/10 05:30:06;;;;;;;13.13;3.40;;;11.30;99.90;;;;;;5430353;26;20013;-73
2024/04/10 05:32:35;;;;;;;13.70;3.13;;;11.30;99.90;;;;;;5467905;26;20487;-74
2024/04/10 05:35:01;;;;;;;15.73;3.22;;;11.30;99.90;;;;;;5431186;26;20084;-77
2024/04/10 05:37:27;;;;;;;17.13;3.05;;;11.30;99.90;;;;;;5432968;26;19999;-77
2024/04/10 05:40:08;;;;;;;10.18;3.08;;;11.30;99.90;;;;;;5434709;26;20018;-78
2024/04/10 05:42:37;;;;;;;16.80;3.97;;;11.30;99.90;;;;;;5431729;26;20011;-74
2024/04/10 05:45:06;;;;;;;15.45;3.35;;;11.30;99.90;;;;;;5431809;26;19998;-78
2024/04/10 05:47:31;;;;;;;17.42;3.60;;;11.30;99.90;;;;;;5433479;26;20013;-73
2024/04/10 05:49:57;;;;;;;18.02;3.75;;;11.30;99.90;;;;;;5424982;26;19999;-74
2024/04/10 05:52:23;;;;;;;18.02;3.60;;;11.30;99.90;;;;;;5429754;26;19999;-77
2024/04/10 05:54:50;;;;;;;11.77;2.97;;;11.20;99.90;;;;;;5427896;26;20471;-76
2024/04/10 05:57:15;;;;;;;14.27;2.97;;;11.10;99.90;;;;;;5429467;26;20368;-76
2024/04/10 05:59:41;;;;;;;13.98;3.08;;;11.10;99.90;;;;;;5432738;26;20436;-75
2024/04/10 06:02:07;;;;;;;19.65;3.88;;;11.10;99.90;;;;;;5431290;26;20004;-74
2024/04/10 06:04:32;;;;;;;10.40;3.10;;;11.00;99.90;;;;;;5436392;26;20007;-75
2024/04/10 06:06:58;;;;;;;15.50;3.65;;;11.00;99.90;;;;;;5432567;26;20366;-77
2024/04/10 06:10:55;;;;;;;12.73;2.92;;;11.00;99.90;;;;;;5499451;25;20355;-75
2024/04/10 06:13:21;;;;;;;15.40;3.33;;;11.10;99.90;;;;;;5498127;26;20071;-75
2024/04/10 06:16:00;;;;;;;15.63;4.07;;;11.10;99.90;;;;;;5498200;25;20038;-74
2024/04/10 06:18:26;;;;;;;13.57;3.22;;;11.10;99.90;;;;;;5498367;26;20029;-75
2024/04/10 06:21:03;;;;;;;11.40;3.38;;;11.10;99.90;;;;;;5496619;25;20033;-74
2024/04/10 06:23:31;;;;;;;19.90;4.25;;;11.20;99.90;;;;;;5499175;26;20002;-78
2024/04/10 06:25:57;;;;;;;13.65;3.53;;;11.20;99.90;;;;;;5497240;25;20002;-76
2024/04/10 06:28:25;;;;;;;11.73;3.30;;;11.30;99.90;;;;;;5493192;26;20020;-81
2024/04/10 06:31:04;;;;;;;16.63;3.30;;;11.30;99.90;;;;;;5497265;26;20001;-77
2024/04/10 06:33:31;;;;;;;10.30;3.80;;;11.40;99.90;;;;;;5495443;26;20020;-77
2024/04/10 06:36:03;;;;;;;12.75;3.53;;;11.30;99.90;;;;;;5494910;25;20039;-78
2024/04/10 06:38:32;;;;;;;13.30;3.25;;;11.40;99.90;;;;;;5496391;25;20002;-75
2024/04/10 06:41:00;;;;;;;11.90;3.08;;;11.50;99.90;;;;;;5495634;25;20472;-76
2024/04/10 06:43:27;;;;;;;13.52;3.65;;;11.40;99.90;;;;;;5495534;26;20009;-76
2024/04/10 06:45:59;;;;;;;15.18;3.60;;;11.50;99.90;;;;;;5497185;25;19998;-76
2024/04/10 06:48:26;;;;;;;13.40;3.03;;;11.60;99.90;;;;;;5492276;26;20005;-77
2024/04/10 06:51:00;;;;;;;12.32;3.30;;;11.60;99.90;;;;;;5496863;25;19998;-79
2024/04/10 06:53:26;;;;;;;9.20;2.83;;;11.60;99.90;;;;;;5495952;25;20002;-77
2024/04/10 06:55:56;;;;;;;12.40;3.20;;;11.70;99.90;;;;;;5496186;25;20020;-80
2024/04/10 06:58:23;;;;;;;20.88;3.83;;;11.80;99.90;;;;;;5457663;25;20460;-77
2024/04/10 07:01:02;;;;;;;14.68;3.50;;;11.80;99.90;;;;;;5440882;26;20427;-80
2024/04/10 07:03:30;;;;;;;14.93;3.55;;;11.90;99.90;;;;;;5443217;26;20002;-76
2024/04/10 07:06:04;;;;;;;16.85;3.78;;;11.90;99.90;;;;;;5449143;26;19999;-76
2024/04/10 07:08:31;;;;;;;11.20;3.00;;;11.90;99.90;;;;;;5445807;26;20014;-79
2024/04/10 07:10:57;;;;;;;12.35;3.28;;;11.90;99.90;;;;;;5446374;26;20007;-79
2024/04/10 07:13:24;;;;;;;14.52;3.22;;;11.80;99.90;;;;;;5440482;26;20003;-80
2024/04/10 07:16:00;;;;;;;11.57;3.35;;;11.70;99.90;;;;;;5442626;26;20077;-80
2024/04/10 07:18:30;;;;;;;10.10;3.25;;;11.80;99.90;;;;;;5444167;26;20011;-81
2024/04/10 07:21:07;;;;;;;21.90;3.13;;;11.80;99.90;;;;;;5439987;26;20022;-79
2024/04/10 07:23:36;;;;;;;12.63;3.22;;;11.90;99.90;;;;;;5432272;26;20361;-77
2024/04/10 07:26:15;;;;;;;10.73;2.90;;;12.00;99.90;;;;;;5429718;26;20009;-76
2024/04/10 07:28:45;;;;;;;14.98;3.35;;;12.00;99.90;;;;;;5426166;26;20405;-76
2024/04/10 07:31:12;;;;;;;11.18;3.33;;;12.00;99.90;;;;;;5430920;26;20036;-79
2024/04/10 07:33:38;;;;;;;17.45;3.70;;;12.00;99.90;;;;;;5429766;26;19995;-77
2024/04/10 07:36:12;;;;;;;12.10;3.25;;;12.10;99.90;;;;;;5432318;26;20488;-79
2024/04/10 07:38:38;;;;;;;11.18;3.38;;;12.20;99.90;;;;;;5428893;26;20436;-75
2024/04/10 07:41:05;;;;;;;14.43;3.25;;;12.30;99.90;;;;;;5428750;26;19999;-78
2024/04/10 07:43:34;;;;;;;16.48;3.33;;;12.40;99.90;;;;;;5435452;26;20017;-77
2024/04/10 07:46:13;;;;;;;12.85;3.03;;;12.40;99.90;;;;;;5430269;26;20003;-76
2024/04/10 07:48:41;;;;;;;13.25;3.08;;;12.40;99.90;;;;;;5431276;26;20172;-80
2024/04/10 07:51:08;;;;;;;14.45;3.05;;;12.40;99.90;;;;;;5433630;26;20023;-77
2024/04/10 07:53:38;;;;;;;14.23;3.30;;;12.50;99.90;;;;;;5432792;26;20121;-76
2024/04/10 07:56:05;;;;;;;12.98;2.97;;;12.60;99.90;;;;;;5434387;26;20003;-75
2024/04/10 07:58:31;;;;;;;11.90;3.20;;;12.80;99.90;;;;;;5430415;26;20022;-78
2024/04/10 08:00:59;;;;;;;10.05;2.90;;;12.80;99.90;;;;;;5428715;26;20391;-79
2024/04/10 08:03:26;;;;;;;10.75;2.95;;;12.90;99.90;;;;;;5433672;26;20014;-77
2024/04/10 08:05:52;;;;;;;11.23;2.97;;;13.00;99.90;;;;;;5432378;26;20003;-78
2024/04/10 08:08:18;;;;;;;13.30;3.05;;;13.20;99.90;;;;;;5431729;26;19999;-77
2024/04/10 08:10:45;;;;;;;10.48;3.17;;;13.30;99.90;;;;;;5433534;26;20000;-77
2024/04/10 08:13:10;;;;;;;10.95;2.63;;;13.40;99.90;;;;;;5429521;26;19999;-77
2024/04/10 08:15:39;;;;;;;11.60;3.13;;;13.50;99.90;;;;;;5427464;26;20379;-77
2024/04/10 08:18:05;;;;;;;12.20;3.83;;;13.60;99.90;;;;;;5430050;26;20065;-76
2024/04/10 08:20:31;;;;;;;11.27;3.20;;;13.80;99.90;;;;;;5431092;26;19999;-80
2024/04/10 08:22:58;;;;;;;14.07;3.53;;;14.00;99.90;;;;;;5427199;26;20028;-79
2024/04/10 08:25:24;;;;;;;12.98;3.33;;;14.20;99.90;;;;;;5433335;26;20456;-75
2024/04/10 08:27:50;;;;;;;11.52;2.95;;;14.30;99.90;;;;;;5430795;26;20011;-76
2024/04/10 08:30:16;;;;;;;13.85;2.00;;;14.20;99.90;;;;;;5433989;26;20017;-78
2024/04/10 08:32:42;;;;;;;14.63;3.03;;;14.00;99.90;;;;;;5426253;26;20383;-81
2024/04/10 08:35:09;;;;;;;12.63;2.80;;;13.80;99.90;;;;;;5425221;26;19999;-77
2024/04/10 08:37:34;;;;;;;9.70;2.50;;;13.70;99.90;;;;;;5436278;26;20011;-76
2024/04/10 08:40:00;;;;;;;15.50;2.47;;;13.70;99.90;;;;;;5431012;26;20003;-77
2024/04/10 08:42:27;;;;;;;13.40;2.90;;;13.70;99.90;;;;;;5427535;26;20139;-78
2024/04/10 08:44:54;;;;;;;14.50;2.80;;;14.10;99.90;;;;;;5401195;26;20663;-79
2024/04/10 08:47:23;;;;;;;9.90;2.60;;;14.30;99.90;;;;;;5431403;26;20038;-77
2024/04/10 08:49:50;;;;;;;8.95;2.08;;;14.40;99.90;;;;;;5431274;26;20000;-76
2024/04/10 08:52:16;;;;;;;9.30;1.48;;;14.60;99.90;;;;;;5429497;26;20011;-81
2024/04/10 08:54:44;;;;;;;11.40;2.45;;;14.60;99.90;;;;;;5429889;26;20014;-83
2024/04/10 08:57:09;;;;;;;9.40;2.13;;;14.70;99.90;;;;;;5427431;26;20026;-80
2024/04/10 08:59:35;;;;;;;8.32;1.95;;;15.00;99.90;;;;;;5425898;26;19999;-82
2024/04/10 09:02:03;;;;;;;7.13;2.20;;;14.90;99.90;;;;;;5429992;26;20468;-76
2024/04/10 09:04:29;;;;;;;11.07;2.50;;;14.90;99.90;;;;;;5418720;26;20069;-77
2024/04/10 09:07:02;;;;;;;14.48;2.50;;;15.10;99.90;;;;;;5433180;26;20006;-80
2024/04/10 09:09:28;;;;;;;14.75;2.65;;;14.90;99.90;;;;;;5471210;26;20448;-80
2024/04/10 09:11:54;;;;;;;14.88;2.53;;;15.10;99.90;;;;;;5438120;26;20038;-82
2024/04/10 09:14:20;;;;;;;12.25;2.20;;;15.30;99.90;;;;;;5430007;26;20083;-81
2024/04/10 09:16:46;;;;;;;13.70;1.90;;;15.30;99.90;;;;;;5432542;26;20397;-77
2024/04/10 09:19:18;;;;;;;6.13;1.90;;;15.40;99.90;;;;;;5424517;26;19999;-79
2024/04/10 09:21:59;;;;;;;7.95;1.67;;;15.60;99.90;;;;;;5430007;26;19999;-79
2024/04/10 09:24:27;;;;;;;6.83;1.97;;;15.70;99.90;;;;;;5429911;26;19995;-80
2024/04/10 09:26:53;;;;;;;8.18;1.83;;;15.70;99.90;;;;;;5432384;26;20361;-76
2024/04/10 09:29:19;;;;;;;8.90;1.95;;;15.90;99.90;;;;;;5429493;26;20451;-79
2024/04/10 09:31:53;;;;;;;7.40;1.40;;;16.00;99.90;;;;;;5429141;26;20017;-77
2024/04/10 09:34:20;;;;;;;6.60;1.33;;;16.00;99.90;;;;;;5432603;26;20008;-82
2024/04/10 09:36:47;;;;;;;10.80;1.88;;;16.10;99.90;;;;;;5428947;26;20076;-76
2024/04/10 09:39:13;;;;;;;5.68;1.67;;;16.20;99.90;;;;;;5431059;26;20456;-81
2024/04/10 09:41:44;;;;;;;5.38;1.70;;;16.40;99.90;;;;;;5425025;26;20022;-81
2024/04/10 09:44:11;;;;;;;5.93;1.77;;;16.40;99.90;;;;;;5428528;26;20501;-80
2024/04/10 09:46:38;;;;;;;4.90;1.70;;;16.50;99.90;;;;;;5433099;26;20071;-82
2024/04/10 09:49:14;;;;;;;7.72;2.53;;;16.60;99.90;;;;;;5422647;26;20062;-75
2024/04/10 09:51:41;;;;;;;7.95;1.85;;;16.50;99.90;;;;;;5425725;26;20072;-78
2024/04/10 09:54:08;;;;;;;7.25;1.75;;;16.60;99.90;;;;;;5428501;26;20021;-79
2024/04/10 09:56:39;;;;;;;8.02;1.55;;;16.70;99.90;;;;;;5425212;26;20007;-80
2024/04/10 09:59:13;;;;;;;6.07;1.67;;;16.80;99.90;;;;;;5421459;26;20000;-78
2024/04/10 10:01:39;;;;;;;8.65;1.52;;;16.90;99.90;;;;;;5420526;26;20421;-82
2024/04/10 10:04:05;;;;;;;4.00;1.00;;;17.00;99.90;;;;;;5429459;26;20007;-81
2024/04/10 10:06:31;;;;;;;6.93;1.00;;;17.00;99.90;;;;;;5431175;26;20461;-81
2024/04/10 10:08:58;;;;;;;4.40;1.55;;;17.20;99.90;;;;;;5435889;26;19995;-80
2024/04/10 10:11:24;;;;;;;7.03;1.83;;;17.40;99.90;;;;;;5430840;26;19999;-79
2024/04/10 10:14:02;;;;;;;9.43;1.90;;;17.60;99.90;;;;;;5429863;26;20329;-78
2024/04/10 10:16:31;;;;;;;7.20;1.30;;;17.80;99.90;;;;;;5425128;26;20003;-82
2024/04/10 10:19:01;;;;;;;6.65;1.30;;;18.00;99.90;;;;;;5429265;26;20496;-79
2024/04/10 10:21:28;;;;;;;6.97;1.20;;;17.90;99.90;;;;;;5422993;26;20143;-81
2024/04/10 10:24:05;;;;;;;5.28;1.70;;;17.80;99.90;;;;;;5425728;26;20080;-81
2024/04/10 10:26:31;;;;;;;5.53;1.50;;;18.00;99.90;;;;;;5426950;26;19995;-81
2024/04/10 10:29:04;;;;;;;5.93;1.95;;;18.10;99.90;;;;;;5429636;26;20381;-81
2024/04/10 10:31:30;;;;;;;9.90;1.90;;;18.20;99.90;;;;;;5433530;26;20004;-82
2024/04/10 10:34:01;;;;;;;6.85;1.67;;;17.90;99.90;;;;;;5428086;26;20014;-80
2024/04/10 10:36:30;;;;;;;6.97;1.70;;;17.60;99.90;;;;;;5427870;26;20007;-82
2024/04/10 10:39:02;;;;;;;4.80;1.83;;;17.80;99.90;;;;;;5425271;26;20011;-79
2024/04/10 10:41:28;;;;;;;7.85;1.58;;;18.10;99.90;;;;;;5434789;26;20014;-81
2024/04/10 10:43:58;;;;;;;8.48;1.60;;;18.20;99.90;;;;;;5427050;26;20010;-78
2024/04/10 10:46:24;;;;;;;5.72;1.65;;;18.00;99.90;;;;;;5423571;26;20010;-77
2024/04/10 10:48:50;;;;;;;5.45;1.83;;;17.50;99.90;;;;;;5433715;26;20007;-78
2024/04/10 10:51:18;;;;;;;6.32;2.00;;;17.60;99.90;;;;;;5429977;26;20495;-81
2024/04/10 10:53:44;;;;;;;5.25;1.60;;;17.40;99.90;;;;;;5433222;26;19999;-78
2024/04/10 10:56:10;;;;;;;8.40;2.30;;;17.10;99.90;;;;;;5427329;26;20003;-81
2024/04/10 10:58:36;;;;;;;6.53;2.03;;;17.00;99.90;;;;;;5430864;26;20022;-77
2024/04/10 11:01:08;;;;;;;7.00;2.08;;;16.90;99.90;;;;;;5430256;26;20255;-79
2024/04/10 11:03:34;;;;;;;3.47;1.35;;;16.90;99.90;;;;;;5425063;26;20003;-80
2024/04/10 11:06:13;;;;;;;7.90;2.08;;;16.80;99.90;;;;;;5432045;26;20076;-77
2024/04/10 11:08:38;;;;;;;6.78;1.80;;;16.70;99.90;;;;;;5429042;26;20007;-78
2024/04/10 11:11:06;;;;;;;6.65;1.70;;;16.70;99.90;;;;;;5439232;26;20003;-78
2024/04/10 11:13:32;;;;;;;11.35;2.05;;;16.70;99.90;;;;;;5428098;26;20010;-81
2024/04/10 11:15:58;;;;;;;4.72;1.70;;;16.80;99.90;;;;;;5432777;26;20007;-79
2024/04/10 11:18:25;;;;;;;6.35;1.45;;;17.20;99.90;;;;;;5433973;26;20003;-78
2024/04/10 11:20:52;;;;;;;5.25;1.65;;;17.00;99.90;;;;;;5430504;26;20437;-78
2024/04/10 11:23:19;;;;;;;2.38;1.08;;;17.20;99.90;;;;;;5427922;26;20000;-77
2024/04/10 11:25:45;;;;;;;8.98;2.10;;;17.20;99.90;;;;;;5433383;26;20051;-79
2024/04/10 11:28:12;;;;;;;5.10;1.08;;;17.20;99.90;;;;;;5434367;26;20023;-79
2024/04/10 11:30:38;;;;;;;7.32;1.80;;;17.50;99.90;;;;;;5431787;26;20001;-78
2024/04/10 11:33:08;;;;;;;6.43;1.63;;;17.60;99.90;;;;;;5425066;26;20003;-77
2024/04/10 11:35:37;;;;;;;14.18;2.83;;;17.50;99.90;;;;;;5428684;26;20336;-78
2024/04/10 11:38:03;;;;;;;6.40;1.25;;;17.40;99.90;;;;;;5426332;26;19999;-78
2024/04/10 11:40:29;;;;;;;11.70;2.33;;;17.30;99.90;;;;;;5429490;26;20003;-81
2024/04/10 11:42:54;;;;;;;10.43;1.58;;;17.50;99.90;;;;;;5434918;26;20003;-78
2024/04/10 11:45:20;;;;;;;7.32;1.77;;;17.70;99.90;;;;;;5431060;26;19999;-81
2024/04/10 11:47:48;;;;;;;6.40;1.50;;;17.90;99.90;;;;;;5425861;26;20002;-79
2024/04/10 11:50:17;;;;;;;5.55;1.33;;;18.10;99.90;;;;;;5432224;26;20010;-79
2024/04/10 11:52:44;;;;;;;7.55;1.45;;;18.20;99.90;;;;;;5424742;26;20076;-81
2024/04/10 11:55:10;;;;;;;8.07;1.30;;;18.40;99.90;;;;;;5439910;26;20001;-78
2024/04/10 11:57:36;;;;;;;16.02;2.13;;;18.50;99.90;;;;;;5434456;26;20078;-81
2024/04/10 12:00:07;;;;;;;11.15;1.77;;;18.40;99.90;;;;;;5438784;26;20452;-82
2024/04/10 12:02:34;;;;;;;6.10;1.38;;;18.30;99.90;;;;;;5430962;26;20064;-78
2024/04/10 12:05:06;;;;;;;6.00;1.73;;;18.20;99.90;;;;;;5430522;26;20585;-81
2024/04/10 12:07:33;;;;;;;4.53;1.23;;;18.50;99.90;;;;;;5428719;26;20038;-82
2024/04/10 12:10:00;;;;;;;12.30;1.40;;;18.60;99.90;;;;;;5435271;26;19999;-80
2024/04/10 12:12:28;;;;;;;7.85;1.33;;;18.60;99.90;;;;;;5435482;26;20011;-80
2024/04/10 12:14:54;;;;;;;8.98;1.58;;;18.60;99.90;;;;;;5432388;26;19999;-82
2024/04/10 12:17:21;;;;;;;5.47;1.25;;;18.60;99.90;;;;;;5426303;26;20014;-78
2024/04/10 12:19:48;;;;;;;4.63;1.25;;;18.70;99.90;;;;;;5430811;26;20007;-79
2024/04/10 12:22:13;;;;;;;9.25;1.60;;;18.70;99.90;;;;;;5433242;26;20026;-80
2024/04/10 12:24:39;;;;;;;7.75;1.40;;;18.70;99.90;;;;;;5432530;26;19999;-77
2024/04/10 12:27:05;;;;;;;4.80;1.20;;;18.90;99.90;;;;;;5433226;26;19999;-80
2024/04/10 12:29:31;;;;;;;4.32;1.40;;;19.00;99.90;;;;;;5432622;26;20003;-77
2024/04/10 12:31:59;;;;;;;5.05;1.08;;;19.00;99.90;;;;;;5426233;26;20006;-77
2024/04/10 12:34:25;;;;;;;4.88;1.42;;;19.00;99.90;;;;;;5424073;26;20455;-79
2024/04/10 12:39:36;;;;;;;6.22;1.40;;;19.30;99.90;;;;;;5415387;26;20479;-77
2024/04/10 12:42:04;;;;;;;11.82;1.70;;;19.50;99.90;;;;;;5423482;26;20014;-77
2024/04/10 12:44:30;;;;;;;4.75;1.23;;;19.30;99.90;;;;;;5423431;26;20060;-78